Time;durP1;ratioP1;P1;durP2;ratioP2;P2;SDS_P1;SDS_P2;PMS_P1;PMS_P2;Temp;Humidity;BMP_temperature;BMP_pressure;BME280_temperature;BME280_humidity;BME280_pressure;Samples;Min_cycle;Max_cycle;Signal;HPM_P1;HPM_P2
2022/10/30 00:01:45;;;;;;;;;;;15.30;99.90;;;;;;5072951;28;19965;-75
2022/10/30 00:04:11;;;;;;;;;;;15.20;99.90;;;;;;5073425;28;19919;-75
2022/10/30 00:06:36;;;;;;;;;;;15.20;99.90;;;;;;5070923;28;20224;-74
2022/10/30 00:09:02;;;;;;;;;;;15.20;99.90;;;;;;5071940;28;19924;-74
2022/10/30 00:11:28;;;;;;;;;;;15.10;99.90;;;;;;5077356;28;19920;-74
2022/10/30 00:13:53;;;;;;;;;;;15.10;99.90;;;;;;5069731;28;19923;-75
2022/10/30 00:16:19;;;;;;;;;;;15.10;99.90;;;;;;5073568;28;19908;-74
2022/10/30 00:18:44;;;;;;;;;;;15.10;99.90;;;;;;5072992;28;19996;-74
2022/10/30 00:21:11;;;;;;;;;;;15.10;99.90;;;;;;5070968;28;19946;-74
2022/10/30 00:23:37;;;;;;;;;;;15.00;99.90;;;;;;5072633;28;19924;-74
2022/10/30 00:26:04;;;;;;;;;;;15.00;99.90;;;;;;5072345;28;19915;-74
2022/10/30 00:28:29;;;;;;;;;;;15.00;99.90;;;;;;5073811;28;19912;-75
2022/10/30 00:30:57;;;;;;;;;;;14.90;99.90;;;;;;5061344;28;19917;-75
2022/10/30 00:33:22;;;;;;;;;;;14.90;99.90;;;;;;5072720;28;19912;-74
2022/10/30 00:35:48;;;;;;;;;;;14.90;99.90;;;;;;5074356;28;19935;-74
2022/10/30 00:38:13;;;;;;;;;;;14.80;99.90;;;;;;5073708;28;19908;-75
2022/10/30 00:40:39;;;;;;;;;;;14.80;99.90;;;;;;5066339;28;19916;-75
2022/10/30 00:43:24;;;;;;;;;;;14.80;99.90;;;;;;5068316;28;19982;-74
2022/10/30 00:45:50;;;;;;;;;;;14.80;99.90;;;;;;5100003;28;19913;-74
2022/10/30 00:48:16;;;;;;;;;;;14.70;99.90;;;;;;5077658;28;19908;-74
2022/10/30 00:50:41;;;;;;;;;;;14.70;99.90;;;;;;5077841;28;19909;-74
2022/10/30 00:53:10;;;;;;;;;;;14.60;99.90;;;;;;5077430;28;19916;-74
2022/10/30 00:55:41;;;;;;;;;;;14.70;99.90;;;;;;5075951;28;20211;-75
2022/10/30 00:58:08;;;;;;;;;;;14.60;99.90;;;;;;5078122;28;19908;-75
2022/10/30 01:00:35;;;;;;;;;;;14.60;99.90;;;;;;5077425;28;19920;-74
2022/10/30 01:03:01;;;;;;;;;;;14.60;99.90;;;;;;5077991;28;19924;-75
2022/10/30 01:05:28;;;;;;;;;;;14.60;99.90;;;;;;5077811;28;20475;-75
2022/10/30 01:07:54;;;;;;;;;;;14.60;99.90;;;;;;5110907;28;19908;-75
2022/10/30 01:10:20;;;;;;;;;;;14.60;99.90;;;;;;5077746;28;19909;-75
2022/10/30 01:12:46;;;;;;;;;;;14.60;99.90;;;;;;5074685;28;19916;-74
2022/10/30 01:15:12;;;;;;;;;;;14.60;99.90;;;;;;5073447;28;20330;-75
2022/10/30 01:17:56;;;;;;;;;;;14.60;99.90;;;;;;5076803;28;20311;-75
2022/10/30 01:20:27;;;;;;;;;;;14.50;99.90;;;;;;5076549;28;19915;-75
2022/10/30 01:22:59;;;;;;;;;;;14.60;99.90;;;;;;5070238;28;19925;-75
2022/10/30 01:25:25;;;;;;;;;;;14.50;99.90;;;;;;5055028;28;19964;-75
2022/10/30 01:28:09;;;;;;;;;;;14.50;99.90;;;;;;5060223;28;19913;-75
2022/10/30 01:30:41;;;;;;;;;;;14.40;99.90;;;;;;5041137;28;19917;-75
2022/10/30 01:33:25;;;;;;;;;;;14.40;99.90;;;;;;5054465;28;20355;-74
2022/10/30 01:36:09;;;;;;;;;;;14.30;99.90;;;;;;5073545;28;19939;-74
2022/10/30 01:38:38;;;;;;;;;;;14.30;99.90;;;;;;5068504;28;19917;-75
2022/10/30 01:41:03;;;;;;;;;;;14.30;99.90;;;;;;5064731;28;19919;-74
2022/10/30 01:43:30;;;;;;;;;;;14.30;99.90;;;;;;5058923;28;19917;-74
2022/10/30 01:46:05;;;;;;;;;;;14.30;99.90;;;;;;5060478;28;19919;-75
2022/10/30 01:48:37;;;;;;;;;;;14.20;99.90;;;;;;5067710;28;19919;-75
2022/10/30 01:51:08;;;;;;;;;;;14.20;99.90;;;;;;5072076;28;20007;-74
2022/10/30 01:53:52;;;;;;;;;;;14.30;99.90;;;;;;5066834;28;19925;-75
2022/10/30 01:56:20;;;;;;;;;;;14.20;99.90;;;;;;5060708;28;19923;-75
2022/10/30 01:58:53;;;;;;;;;;;14.30;99.90;;;;;;5048326;28;19909;-75
2022/10/30 02:01:20;;;;;;;;;;;14.20;99.90;;;;;;5073050;28;19924;-75
2022/10/30 02:03:45;;;;;;;;;;;14.20;99.90;;;;;;5068211;28;20381;-75
2022/10/30 02:06:11;;;;;;;;;;;14.20;99.90;;;;;;5076676;28;19951;-75
2022/10/30 02:08:36;;;;;;;;;;;14.20;99.90;;;;;;5062741;28;19920;-74
2022/10/30 02:11:02;;;;;;;;;;;14.20;99.90;;;;;;5040077;28;19921;-75
2022/10/30 02:13:28;;;;;;;;;;;14.20;99.90;;;;;;5076216;28;20135;-74
2022/10/30 02:15:54;;;;;;;;;;;14.20;99.90;;;;;;5070401;28;20258;-75
2022/10/30 02:18:19;;;;;;;;;;;14.20;99.90;;;;;;5076060;28;19917;-75
2022/10/30 02:20:45;;;;;;;;;;;14.20;99.90;;;;;;5050691;28;19917;-75
2022/10/30 02:23:17;;;;;;;;;;;14.20;99.90;;;;;;5062674;28;19921;-74
2022/10/30 02:25:43;;;;;;;;;;;14.20;99.90;;;;;;5076063;28;19913;-74
2022/10/30 02:28:09;;;;;;;;;;;14.30;99.90;;;;;;5075331;28;19920;-75
2022/10/30 02:30:34;;;;;;;;;;;14.30;99.90;;;;;;5073266;28;19921;-75
2022/10/30 02:33:00;;;;;;;;;;;14.20;99.90;;;;;;5066356;28;19913;-75
2022/10/30 02:35:26;;;;;;;;;;;14.30;99.90;;;;;;5075837;28;19909;-75
2022/10/30 02:37:51;;;;;;;;;;;14.20;99.90;;;;;;5076832;28;19919;-75
2022/10/30 02:40:17;;;;;;;;;;;14.20;99.90;;;;;;5075317;28;20368;-75
2022/10/30 02:42:43;;;;;;;;;;;14.30;99.90;;;;;;5075343;28;19934;-74
2022/10/30 02:45:08;;;;;;;;;;;14.20;99.90;;;;;;5075223;28;19918;-77
2022/10/30 02:47:34;;;;;;;;;;;14.20;99.90;;;;;;5074526;28;19997;-75
2022/10/30 02:49:59;;;;;;;;;;;14.20;99.90;;;;;;5075533;28;19966;-75
2022/10/30 02:52:25;;;;;;;;;;;14.20;99.90;;;;;;5074549;28;19916;-75
2022/10/30 02:54:51;;;;;;;;;;;14.20;99.90;;;;;;5075777;28;19916;-74
2022/10/30 02:57:16;;;;;;;;;;;14.20;99.90;;;;;;5074657;28;19995;-75
2022/10/30 02:59:42;;;;;;;;;;;14.10;99.90;;;;;;5074005;28;19916;-75
2022/10/30 03:02:07;;;;;;;;;;;14.10;99.90;;;;;;5069871;28;20270;-75
2022/10/30 03:04:33;;;;;;;;;;;14.10;99.90;;;;;;5070981;28;19912;-75
2022/10/30 03:06:58;;;;;;;;;;;14.00;99.90;;;;;;5072897;28;19916;-75
2022/10/30 03:09:24;;;;;;;;;;;14.00;99.90;;;;;;5073409;28;19916;-74
2022/10/30 03:11:49;;;;;;;;;;;14.00;99.90;;;;;;5068109;28;19913;-76
2022/10/30 03:14:15;;;;;;;;;;;14.00;99.90;;;;;;5074047;28;19920;-75
2022/10/30 03:16:40;;;;;;;;;;;13.90;99.90;;;;;;5073261;28;20000;-75
2022/10/30 03:19:06;;;;;;;;;;;13.80;99.90;;;;;;5071898;28;19913;-75
2022/10/30 03:21:31;;;;;;;;;;;13.80;99.90;;;;;;5074612;28;19917;-75
2022/10/30 03:23:57;;;;;;;;;;;13.80;99.90;;;;;;5074823;28;19920;-74
2022/10/30 03:26:23;;;;;;;;;;;13.80;99.90;;;;;;5074120;28;20355;-75
2022/10/30 03:28:49;;;;;;;;;;;13.90;99.90;;;;;;5074528;28;19935;-74
2022/10/30 03:31:17;;;;;;;;;;;13.90;99.90;;;;;;5075184;28;19912;-75
2022/10/30 03:33:43;;;;;;;;;;;13.90;99.90;;;;;;5106939;28;19917;-75
2022/10/30 03:36:09;;;;;;;;;;;13.90;99.90;;;;;;5070770;28;19940;-75
2022/10/30 03:38:35;;;;;;;;;;;13.90;99.90;;;;;;5073460;28;20342;-74
2022/10/30 03:41:01;;;;;;;;;;;13.90;99.90;;;;;;5074363;28;19934;-74
2022/10/30 03:43:27;;;;;;;;;;;13.70;99.90;;;;;;5074629;28;20020;-74
2022/10/30 03:45:53;;;;;;;;;;;13.70;99.90;;;;;;5074289;28;19916;-74
2022/10/30 03:48:20;;;;;;;;;;;13.50;99.90;;;;;;5073655;28;19958;-75
2022/10/30 03:50:46;;;;;;;;;;;13.50;99.90;;;;;;5072028;28;19919;-75
2022/10/30 03:53:12;;;;;;;;;;;13.40;99.90;;;;;;5073264;28;19925;-75
2022/10/30 03:55:37;;;;;;;;;;;13.40;99.90;;;;;;5074343;28;20204;-75
2022/10/30 03:58:03;;;;;;;;;;;13.50;99.90;;;;;;5074645;28;20003;-74
2022/10/30 04:00:29;;;;;;;;;;;13.50;99.90;;;;;;5074615;28;19970;-74
2022/10/30 04:02:55;;;;;;;;;;;13.50;99.90;;;;;;5073857;28;20300;-74
2022/10/30 04:05:21;;;;;;;;;;;13.40;99.90;;;;;;5066446;28;19912;-75
2022/10/30 04:07:47;;;;;;;;;;;13.20;99.90;;;;;;5073035;28;19940;-74
2022/10/30 04:10:13;;;;;;;;;;;13.10;99.90;;;;;;5072919;28;20341;-75
2022/10/30 04:12:38;;;;;;;;;;;13.00;99.90;;;;;;5073210;28;19955;-75
2022/10/30 04:15:05;;;;;;;;;;;12.90;99.90;;;;;;5071406;28;19967;-74
2022/10/30 04:17:30;;;;;;;;;;;12.80;99.90;;;;;;5073796;28;20004;-74
2022/10/30 04:19:56;;;;;;;;;;;12.80;99.90;;;;;;5073801;28;20294;-75
2022/10/30 04:22:22;;;;;;;;;;;12.70;99.90;;;;;;5070603;28;19924;-75
2022/10/30 04:24:50;;;;;;;;;;;12.70;99.90;;;;;;5059903;28;19916;-75
2022/10/30 04:27:16;;;;;;;;;;;12.70;99.90;;;;;;5056254;28;20311;-74
2022/10/30 04:29:41;;;;;;;;;;;12.70;99.90;;;;;;5041474;28;19955;-80
2022/10/30 04:32:07;;;;;;;;;;;12.80;99.90;;;;;;5061204;28;20326;-74
2022/10/30 04:34:33;;;;;;;;;;;12.80;99.90;;;;;;5054869;28;20015;-74
2022/10/30 04:36:58;;;;;;;;;;;12.90;99.90;;;;;;5061397;28;20356;-74
2022/10/30 04:39:24;;;;;;;;;;;13.00;99.90;;;;;;5058033;28;20324;-75
2022/10/30 04:41:49;;;;;;;;;;;13.00;99.90;;;;;;5060568;28;20212;-75
2022/10/30 04:44:15;;;;;;;;;;;13.10;99.90;;;;;;5057509;28;19955;-75
2022/10/30 04:46:40;;;;;;;;;;;13.10;99.90;;;;;;5060072;28;19913;-75
2022/10/30 04:49:06;;;;;;;;;;;13.10;99.90;;;;;;5055798;28;20235;-75
2022/10/30 04:51:32;;;;;;;;;;;13.10;99.90;;;;;;5059503;28;19916;-75
2022/10/30 04:53:57;;;;;;;;;;;13.10;99.90;;;;;;5035016;28;20338;-75
2022/10/30 04:56:23;;;;;;;;;;;13.20;99.90;;;;;;5060341;28;20283;-75
2022/10/30 04:58:49;;;;;;;;;;;13.20;99.90;;;;;;5061055;28;19913;-75
2022/10/30 05:01:14;;;;;;;;;;;13.10;99.90;;;;;;5058677;28;19932;-75
2022/10/30 05:03:40;;;;;;;;;;;13.10;99.90;;;;;;5060305;28;19951;-74
2022/10/30 05:06:06;;;;;;;;;;;13.10;99.90;;;;;;5056469;28;19913;-75
2022/10/30 05:08:32;;;;;;;;;;;13.10;99.90;;;;;;5060529;28;19913;-75
2022/10/30 05:10:58;;;;;;;;;;;13.10;99.90;;;;;;5053911;28;19939;-75
2022/10/30 05:13:23;;;;;;;;;;;13.10;99.90;;;;;;5060982;28;19920;-75
2022/10/30 05:15:49;;;;;;;;;;;13.10;99.90;;;;;;5043662;28;19959;-75
2022/10/30 05:18:15;;;;;;;;;;;13.00;99.90;;;;;;5059806;28;19919;-74
2022/10/30 05:20:41;;;;;;;;;;;13.00;99.90;;;;;;5041122;28;19920;-74
2022/10/30 05:23:08;;;;;;;;;;;13.00;99.90;;;;;;5067704;28;19932;-75
2022/10/30 05:25:33;;;;;;;;;;;12.90;99.90;;;;;;5072501;28;19935;-74
2022/10/30 05:28:00;;;;;;;;;;;12.90;99.90;;;;;;5073846;28;20296;-75
2022/10/30 05:30:26;;;;;;;;;;;12.80;99.90;;;;;;5074792;28;19916;-75
2022/10/30 05:32:56;;;;;;;;;;;12.80;99.90;;;;;;5108069;28;19912;-74
2022/10/30 05:35:22;;;;;;;;;;;12.80;99.90;;;;;;5077092;28;20303;-75
2022/10/30 05:37:47;;;;;;;;;;;12.80;99.90;;;;;;5073561;28;19966;-74
2022/10/30 05:40:13;;;;;;;;;;;12.80;99.90;;;;;;5077028;28;19920;-75
2022/10/30 05:42:43;;;;;;;;;;;12.80;99.90;;;;;;5070074;28;19927;-75
2022/10/30 05:45:09;;;;;;;;;;;12.80;99.90;;;;;;5077228;28;19921;-75
2022/10/30 05:47:34;;;;;;;;;;;12.80;99.90;;;;;;5076377;28;19916;-75
2022/10/30 05:50:00;;;;;;;;;;;12.80;99.90;;;;;;5077152;28;19916;-75
2022/10/30 05:52:25;;;;;;;;;;;12.90;99.90;;;;;;5075657;28;19935;-75
2022/10/30 05:54:51;;;;;;;;;;;12.90;99.90;;;;;;5075447;28;19994;-75
2022/10/30 05:57:16;;;;;;;;;;;12.90;99.90;;;;;;5076127;28;19920;-75
2022/10/30 05:59:42;;;;;;;;;;;12.90;99.90;;;;;;5075309;28;19991;-75
2022/10/30 06:02:07;;;;;;;;;;;13.00;99.90;;;;;;5075588;28;19920;-75
2022/10/30 06:04:33;;;;;;;;;;;13.00;99.90;;;;;;5075195;28;19925;-74
2022/10/30 06:06:58;;;;;;;;;;;13.00;99.90;;;;;;5074399;28;19916;-75
2022/10/30 06:09:24;;;;;;;;;;;13.00;99.90;;;;;;5088227;28;19985;-75
2022/10/30 06:11:50;;;;;;;;;;;13.00;99.90;;;;;;5075834;28;19912;-76
2022/10/30 06:14:15;;;;;;;;;;;13.00;99.90;;;;;;5075539;28;20220;-76
2022/10/30 06:16:41;;;;;;;;;;;13.00;99.90;;;;;;5074145;28;20215;-75
2022/10/30 06:19:06;;;;;;;;;;;13.00;99.90;;;;;;5075248;28;19917;-75
2022/10/30 06:21:32;;;;;;;;;;;12.90;99.90;;;;;;5075895;28;19917;-75
2022/10/30 06:23:57;;;;;;;;;;;12.90;99.90;;;;;;5076153;28;19924;-75
2022/10/30 06:26:23;;;;;;;;;;;12.80;99.90;;;;;;5076527;28;19916;-75
2022/10/30 06:28:48;;;;;;;;;;;12.80;99.90;;;;;;5075542;28;19920;-75
2022/10/30 06:31:14;;;;;;;;;;;12.90;99.90;;;;;;5074970;28;19959;-78
2022/10/30 06:33:40;;;;;;;;;;;12.80;99.90;;;;;;5074137;28;19912;-76
2022/10/30 06:36:05;;;;;;;;;;;12.80;99.90;;;;;;5076547;28;19912;-80
2022/10/30 06:38:31;;;;;;;;;;;12.80;99.90;;;;;;5076157;28;19948;-75
2022/10/30 06:40:56;;;;;;;;;;;12.80;99.90;;;;;;5075803;28;19924;-75
2022/10/30 06:43:22;;;;;;;;;;;12.80;99.90;;;;;;5074314;28;20811;-75
2022/10/30 06:45:48;;;;;;;;;;;12.70;99.90;;;;;;5075439;28;19912;-75
2022/10/30 06:48:14;;;;;;;;;;;12.70;99.90;;;;;;5075838;28;19920;-75
2022/10/30 06:50:39;;;;;;;;;;;12.80;99.90;;;;;;5073619;28;20315;-75
2022/10/30 06:53:05;;;;;;;;;;;12.70;99.90;;;;;;5073250;28;19920;-75
2022/10/30 06:55:30;;;;;;;;;;;12.70;99.90;;;;;;5074397;28;19916;-75
2022/10/30 06:57:56;;;;;;;;;;;12.70;99.90;;;;;;5072362;28;19920;-76
2022/10/30 07:00:22;;;;;;;;;;;12.70;99.90;;;;;;5074096;28;19916;-78
2022/10/30 07:02:57;;;;;;;;;;;12.60;99.90;;;;;;5071311;28;19967;-80
2022/10/30 07:05:23;;;;;;;;;;;12.70;99.90;;;;;;5072889;28;20043;-75
2022/10/30 07:07:48;;;;;;;;;;;12.70;99.90;;;;;;5071070;28;20380;-77
2022/10/30 07:10:14;;;;;;;;;;;12.70;99.90;;;;;;5064456;28;19913;-74
2022/10/30 07:12:39;;;;;;;;;;;12.70;99.90;;;;;;5067038;28;20189;-75
2022/10/30 07:15:05;;;;;;;;;;;12.80;99.90;;;;;;5075347;28;19919;-80
2022/10/30 07:17:31;;;;;;;;;;;12.80;99.90;;;;;;5068202;28;19913;-76
2022/10/30 07:19:56;;;;;;;;;;;12.80;99.90;;;;;;5073384;28;20598;-81
2022/10/30 07:22:22;;;;;;;;;;;12.80;99.90;;;;;;5073662;28;20345;-74
2022/10/30 07:24:47;;;;;;;;;;;12.90;99.90;;;;;;5074304;28;19921;-82
2022/10/30 07:27:13;;;;;;;;;;;12.90;99.90;;;;;;5072040;28;19966;-81
2022/10/30 07:29:38;;;;;;;;;;;13.00;99.90;;;;;;5074568;28;19962;-74
2022/10/30 07:32:04;;;;;;;;;;;13.10;99.90;;;;;;5073155;28;19979;-75
2022/10/30 07:34:30;;;;;;;;;;;13.10;99.90;;;;;;5071706;28;19920;-75
2022/10/30 07:36:55;;;;;;;;;;;13.20;99.90;;;;;;5063743;28;19917;-82
2022/10/30 07:39:21;;;;;;;;;;;13.30;99.90;;;;;;5071751;28;19966;-81
2022/10/30 07:41:47;;;;;;;;;;;13.50;99.90;;;;;;5057839;28;19996;-80
2022/10/30 07:44:13;;;;;;;;;;;13.60;99.90;;;;;;5067102;28;19974;-75
2022/10/30 07:46:38;;;;;;;;;;;13.80;99.90;;;;;;5063868;28;19925;-75
2022/10/30 07:49:04;;;;;;;;;;;13.90;99.90;;;;;;5071278;28;19919;-81
2022/10/30 07:51:29;;;;;;;;;;;14.10;99.90;;;;;;5073343;28;19919;-75
2022/10/30 07:53:55;;;;;;;;;;;14.20;99.90;;;;;;5073284;28;19912;-75
2022/10/30 07:56:20;;;;;;;;;;;14.30;99.90;;;;;;5071309;28;19952;-80
2022/10/30 07:58:46;;;;;;;;;;;14.40;99.90;;;;;;5073475;28;19943;-80
2022/10/30 08:01:11;;;;;;;;;;;14.50;99.90;;;;;;5072569;28;19920;-75
2022/10/30 08:03:37;;;;;;;;;;;14.60;99.90;;;;;;5074915;28;19927;-75
2022/10/30 08:06:02;;;;;;;;;;;14.70;99.90;;;;;;5074124;28;19913;-80
2022/10/30 08:08:28;;;;;;;;;;;14.70;99.90;;;;;;5073682;28;19927;-81
2022/10/30 08:10:53;;;;;;;;;;;14.70;99.90;;;;;;5066486;28;20049;-81
2022/10/30 08:13:19;;;;;;;;;;;14.70;99.90;;;;;;5068534;28;20187;-76
2022/10/30 08:15:44;;;;;;;;;;;14.60;99.90;;;;;;5073125;28;19916;-74
2022/10/30 08:18:10;;;;;;;;;;;14.60;99.90;;;;;;5052427;28;19917;-76
2022/10/30 08:20:35;;;;;;;;;;;14.60;99.90;;;;;;5059556;28;21230;-81
2022/10/30 08:23:01;;;;;;;;;;;14.70;99.90;;;;;;5066175;28;19925;-75
2022/10/30 08:25:27;;;;;;;;;;;14.70;99.90;;;;;;5070641;28;20016;-82
2022/10/30 08:27:55;;;;;;;;;;;14.80;99.90;;;;;;5072019;28;20300;-81
2022/10/30 08:30:22;;;;;;;;;;;14.80;99.90;;;;;;5065613;28;19913;-81
2022/10/30 08:32:47;;;;;;;;;;;14.80;99.90;;;;;;5072064;28;19920;-81
2022/10/30 08:35:13;;;;;;;;;;;14.80;99.90;;;;;;5067392;28;19967;-81
2022/10/30 08:37:39;;;;;;;;;;;14.90;99.90;;;;;;5073226;28;19985;-78
2022/10/30 08:40:04;;;;;;;;;;;14.90;99.90;;;;;;5069589;28;20019;-81
2022/10/30 08:42:30;;;;;;;;;;;15.00;99.90;;;;;;5070779;28;20007;-75
2022/10/30 08:44:55;;;;;;;;;;;15.00;99.90;;;;;;5064869;28;19967;-80
2022/10/30 08:47:21;;;;;;;;;;;15.10;99.90;;;;;;5067647;28;19913;-79
2022/10/30 08:49:46;;;;;;;;;;;15.20;99.90;;;;;;5069022;28;19924;-81
2022/10/30 08:52:12;;;;;;;;;;;15.20;99.90;;;;;;5073925;28;20303;-80
2022/10/30 08:54:37;;;;;;;;;;;15.30;99.90;;;;;;5067691;28;20188;-81
2022/10/30 08:57:03;;;;;;;;;;;15.40;99.90;;;;;;5072201;28;19923;-82
2022/10/30 08:59:28;;;;;;;;;;;15.40;99.90;;;;;;5067047;28;19931;-80
2022/10/30 09:01:54;;;;;;;;;;;15.50;99.90;;;;;;5073397;28;19912;-81
2022/10/30 09:04:19;;;;;;;;;;;15.60;99.90;;;;;;5067916;28;19920;-75
2022/10/30 09:06:45;;;;;;;;;;;15.70;99.90;;;;;;5074432;28;19917;-81
2022/10/30 09:09:10;;;;;;;;;;;15.80;99.90;;;;;;5077401;28;19912;-75
2022/10/30 09:11:36;;;;;;;;;;;16.00;99.90;;;;;;5072729;28;19940;-75
2022/10/30 09:14:02;;;;;;;;;;;16.10;99.90;;;;;;5073134;28;19916;-74
2022/10/30 09:16:27;;;;;;;;;;;16.20;99.90;;;;;;5071899;28;20097;-75
2022/10/30 09:18:53;;;;;;;;;;;16.40;99.90;;;;;;5066471;28;19919;-74
2022/10/30 09:21:18;;;;;;;;;;;16.50;99.90;;;;;;5074676;28;19916;-75
2022/10/30 09:23:44;;;;;;;;;;;16.60;99.90;;;;;;5065841;28;19924;-74
2022/10/30 09:26:10;;;;;;;;;;;16.60;99.90;;;;;;5065842;28;20026;-74
2022/10/30 09:28:35;;;;;;;;;;;16.60;99.90;;;;;;5076710;28;19913;-75
2022/10/30 09:31:01;;;;;;;;;;;16.70;99.90;;;;;;5071702;28;19936;-74
2022/10/30 09:33:26;;;;;;;;;;;16.80;99.90;;;;;;5073921;28;20005;-74
2022/10/30 09:35:52;;;;;;;;;;;16.90;99.90;;;;;;5069525;28;20300;-75
2022/10/30 09:38:17;;;;;;;;;;;16.90;99.90;;;;;;5075994;28;19919;-79
2022/10/30 09:40:56;;;;;;;;;;;17.10;99.90;;;;;;5075772;28;19916;-75
2022/10/30 09:43:32;;;;;;;;;;;17.20;99.90;;;;;;5072162;28;20306;-75
2022/10/30 09:46:00;;;;;;;;;;;17.20;99.90;;;;;;5075621;28;19917;-79
2022/10/30 09:48:36;;;;;;;;;;;17.20;99.90;;;;;;5076316;28;19935;-79
2022/10/30 09:51:11;;;;;;;;;;;17.20;99.90;;;;;;5076592;28;20338;-75
2022/10/30 09:53:49;;;;;;;;;;;17.30;99.90;;;;;;5075259;28;19924;-74
2022/10/30 09:56:18;;;;;;;;;;;17.40;99.90;;;;;;5076673;28;19947;-80
2022/10/30 09:59:02;;;;;;;;;;;17.50;99.90;;;;;;5073981;28;20201;-75
2022/10/30 10:01:31;;;;;;;;;;;17.60;99.90;;;;;;5074382;28;19917;-80
2022/10/30 10:04:03;;;;;;;;;;;17.70;99.90;;;;;;5072983;28;19947;-74
2022/10/30 10:06:28;;;;;;;;;;;17.80;99.90;;;;;;5075061;28;19913;-74
2022/10/30 10:09:00;;;;;;;;;;;17.80;99.90;;;;;;5076319;28;20223;-75
2022/10/30 10:11:30;;;;;;;;;;;17.80;99.90;;;;;;5071768;28;19963;-75
2022/10/30 10:14:16;;;;;;;;;;;17.90;99.90;;;;;;5073371;28;19923;-81
2022/10/30 10:16:44;;;;;;;;;;;18.00;99.90;;;;;;5070288;28;19912;-75
2022/10/30 10:19:12;;;;;;;;;;;18.10;99.90;;;;;;5072877;28;19995;-75
2022/10/30 10:21:47;;;;;;;;;;;18.10;99.90;;;;;;5074053;28;20320;-74
2022/10/30 10:24:32;;;;;;;;;;;18.10;99.90;;;;;;5076118;28;19947;-75
2022/10/30 10:27:04;;;;;;;;;;;18.20;99.90;;;;;;5075067;28;19913;-75
2022/10/30 10:29:32;;;;;;;;;;;18.30;99.90;;;;;;5072515;28;19912;-75
2022/10/30 10:32:17;;;;;;;;;;;18.30;99.90;;;;;;5070061;28;19999;-74
2022/10/30 10:34:48;;;;;;;;;;;18.40;99.90;;;;;;5074160;28;19923;-74
2022/10/30 10:37:32;;;;;;;;;;;18.50;99.90;;;;;;5073244;28;19944;-74
2022/10/30 10:40:13;;;;;;;;;;;18.60;99.90;;;;;;5071028;28;20315;-74
2022/10/30 10:42:48;;;;;;;;;;;18.60;99.90;;;;;;5073473;28;19920;-74
2022/10/30 10:45:20;;;;;;;;;;;18.70;99.90;;;;;;5074248;28;19919;-74
2022/10/30 10:47:45;;;;;;;;;;;18.70;99.90;;;;;;5073165;28;19913;-74
2022/10/30 10:50:20;;;;;;;;;;;18.70;99.90;;;;;;5069949;28;19913;-75
2022/10/30 10:53:06;;;;;;;;;;;18.80;99.90;;;;;;5073325;28;19912;-75
2022/10/30 10:55:35;;;;;;;;;;;18.90;99.90;;;;;;5073696;28;19928;-75
2022/10/30 10:58:06;;;;;;;;;;;18.90;99.90;;;;;;5072232;28;20304;-74
2022/10/30 11:00:32;;;;;;;;;;;19.00;99.90;;;;;;5068061;28;19935;-74
2022/10/30 11:03:14;;;;;;;;;;;19.00;99.90;;;;;;5072635;28;20378;-74
2022/10/30 11:05:46;;;;;;;;;;;19.00;99.90;;;;;;5075818;28;19912;-75
2022/10/30 11:08:26;;;;;;;;;;;19.00;99.90;;;;;;5073816;28;19943;-75
2022/10/30 11:10:59;;;;;;;;;;;19.10;99.90;;;;;;5070559;28;19916;-75
2022/10/30 11:13:34;;;;;;;;;;;19.20;99.90;;;;;;5074739;28;19912;-75
2022/10/30 11:16:05;;;;;;;;;;;19.30;99.90;;;;;;5071285;28;19962;-74
2022/10/30 11:18:31;;;;;;;;;;;19.40;99.90;;;;;;5065579;28;20239;-75
2022/10/30 11:21:08;;;;;;;;;;;19.50;99.90;;;;;;5072740;28;19923;-74
2022/10/30 11:23:37;;;;;;;;;;;19.60;99.90;;;;;;5068214;28;19963;-75
2022/10/30 11:26:04;;;;;;;;;;;19.60;99.90;;;;;;5074468;28;19935;-75
2022/10/30 11:28:32;;;;;;;;;;;19.60;99.90;;;;;;5071451;28;19920;-75
2022/10/30 11:31:16;;;;;;;;;;;19.50;99.90;;;;;;5072407;28;19917;-74
2022/10/30 11:33:41;;;;;;;;;;;19.30;99.90;;;;;;5072893;28;19912;-75
2022/10/30 11:36:13;;;;;;;;;;;19.40;99.90;;;;;;5072391;28;19990;-81
2022/10/30 11:38:38;;;;;;;;;;;19.40;99.90;;;;;;5073698;28;19935;-74
2022/10/30 11:41:04;;;;;;;;;;;19.40;99.90;;;;;;5070828;28;20347;-74
2022/10/30 11:43:29;;;;;;;;;;;19.50;99.90;;;;;;5068202;28;20319;-74
2022/10/30 11:45:55;;;;;;;;;;;19.50;99.90;;;;;;5070352;28;19916;-75
2022/10/30 11:48:26;;;;;;;;;;;19.60;99.90;;;;;;5070541;28;19928;-74
2022/10/30 11:50:54;;;;;;;;;;;19.60;99.90;;;;;;5072518;28;20320;-74
2022/10/30 11:53:22;;;;;;;;;;;19.60;99.90;;;;;;5071909;28;20011;-74
2022/10/30 11:55:48;;;;;;;;;;;19.60;99.90;;;;;;5067444;28;19962;-74
2022/10/30 11:58:26;;;;;;;;;;;19.60;99.90;;;;;;5072184;28;19967;-74
2022/10/30 12:01:05;;;;;;;;;;;19.60;99.90;;;;;;5069210;28;19912;-74
2022/10/30 12:03:34;;;;;;;;;;;19.50;99.90;;;;;;5074252;28;19923;-74
2022/10/30 12:06:15;;;;;;;;;;;19.50;99.90;;;;;;5074427;28;19967;-74
2022/10/30 12:08:41;;;;;;;;;;;19.50;99.90;;;;;;5071405;28;19917;-74
2022/10/30 12:11:07;;;;;;;;;;;19.50;99.90;;;;;;5067022;28;19917;-81
2022/10/30 12:13:38;;;;;;;;;;;19.50;99.90;;;;;;5072867;28;20007;-74
2022/10/30 12:16:05;;;;;;;;;;;19.50;99.90;;;;;;5106416;28;19962;-74
2022/10/30 12:18:31;;;;;;;;;;;19.50;99.90;;;;;;5073491;28;20241;-75
2022/10/30 12:20:57;;;;;;;;;;;19.50;99.90;;;;;;5072306;28;19939;-74
2022/10/30 12:23:24;;;;;;;;;;;19.50;99.90;;;;;;5073337;28;20315;-79
2022/10/30 12:25:55;;;;;;;;;;;19.50;99.90;;;;;;5073659;28;19913;-74
2022/10/30 12:28:22;;;;;;;;;;;19.50;99.90;;;;;;5072497;28;20382;-74
2022/10/30 12:30:53;;;;;;;;;;;19.60;99.90;;;;;;5073518;28;20050;-74
2022/10/30 12:33:22;;;;;;;;;;;19.60;99.90;;;;;;5066630;28;20320;-75
2022/10/30 12:35:57;;;;;;;;;;;19.70;99.90;;;;;;5072173;28;19923;-74
2022/10/30 12:38:35;;;;;;;;;;;19.80;99.90;;;;;;5073711;28;20300;-81
2022/10/30 12:41:15;;;;;;;;;;;19.80;99.90;;;;;;5077296;28;20333;-74
2022/10/30 12:43:43;;;;;;;;;;;19.80;99.90;;;;;;5076451;28;20077;-74
2022/10/30 12:46:20;;;;;;;;;;;19.80;99.90;;;;;;5075776;28;19923;-74
2022/10/30 12:48:50;;;;;;;;;;;19.80;99.90;;;;;;5077182;28;19912;-74
2022/10/30 12:51:26;;;;;;;;;;;19.70;99.90;;;;;;5073607;28;19913;-74
2022/10/30 12:53:57;;;;;;;;;;;19.80;99.90;;;;;;5075257;28;20299;-75
2022/10/30 12:56:28;;;;;;;;;;;19.70;99.90;;;;;;5071459;28;19917;-74
2022/10/30 12:59:14;;;;;;;;;;;19.70;99.90;;;;;;5075525;28;19917;-74
2022/10/30 13:01:50;;;;;;;;;;;19.70;99.90;;;;;;5055578;28;19916;-74
2022/10/30 13:04:18;;;;;;;;;;;19.70;99.90;;;;;;5076336;28;19916;-75
2022/10/30 13:07:10;;;;;;;;;;;19.60;99.90;;;;;;5071758;28;20380;-74
2022/10/30 13:09:35;;;;;;;;;;;19.70;99.90;;;;;;5070639;28;19923;-75
2022/10/30 13:12:15;;;;;;;;;;;19.70;99.90;;;;;;5073392;28;19912;-74
2022/10/30 13:14:43;;;;;;;;;;;19.70;99.90;;;;;;5075133;28;19931;-74
2022/10/30 13:17:10;;;;;;;;;;;19.70;99.90;;;;;;5074723;28;19921;-75
2022/10/30 13:19:39;;;;;;;;;;;19.60;99.90;;;;;;5073572;28;19920;-74
2022/10/30 13:22:06;;;;;;;;;;;19.50;99.90;;;;;;5072963;28;19925;-74
2022/10/30 13:24:41;;;;;;;;;;;19.50;99.90;;;;;;5076237;28;20303;-74
2022/10/30 13:27:11;;;;;;;;;;;19.60;99.90;;;;;;5074599;28;20568;-74
2022/10/30 13:29:41;;;;;;;;;;;19.50;99.90;;;;;;5075357;28;20303;-74
2022/10/30 13:32:07;;;;;;;;;;;19.50;99.90;;;;;;5073787;28;19923;-75
2022/10/30 13:34:32;;;;;;;;;;;19.60;99.90;;;;;;5076260;28;19912;-74
2022/10/30 13:37:03;;;;;;;;;;;19.60;99.90;;;;;;5106226;28;19920;-74
2022/10/30 13:39:47;;;;;;;;;;;19.60;99.90;;;;;;5073247;28;19912;-74
2022/10/30 13:42:24;;;;;;;;;;;19.60;99.90;;;;;;5074142;28;19923;-81
2022/10/30 13:44:49;;;;;;;;;;;19.60;99.90;;;;;;5069091;28;19920;-74
2022/10/30 13:47:15;;;;;;;;;;;19.60;99.90;;;;;;5075680;28;20196;-74
2022/10/30 13:49:52;;;;;;;;;;;19.60;99.90;;;;;;5075169;28;19952;-75
2022/10/30 13:52:19;;;;;;;;;;;19.60;99.90;;;;;;5068957;28;19920;-81
2022/10/30 13:55:03;;;;;;;;;;;19.60;99.90;;;;;;5076610;28;19912;-74
2022/10/30 13:57:33;;;;;;;;;;;19.50;99.90;;;;;;5074890;28;19916;-74
2022/10/30 14:00:19;;;;;;;;;;;19.50;99.90;;;;;;5074630;28;19917;-77
2022/10/30 14:03:00;;;;;;;;;;;19.40;99.90;;;;;;5072265;28;19927;-74
2022/10/30 14:05:26;;;;;;;;;;;19.30;99.90;;;;;;5072946;28;19920;-74
2022/10/30 14:07:56;;;;;;;;;;;19.30;99.90;;;;;;5075094;28;19966;-75
2022/10/30 14:10:22;;;;;;;;;;;19.20;99.90;;;;;;5070237;28;20281;-74
2022/10/30 14:12:52;;;;;;;;;;;19.20;99.90;;;;;;5067795;28;19912;-74
2022/10/30 14:15:23;;;;;;;;;;;19.30;99.90;;;;;;5069360;28;19928;-74
2022/10/30 14:18:07;;;;;;;;;;;19.30;99.90;;;;;;5070513;28;19964;-74
2022/10/30 14:20:33;;;;;;;;;;;19.40;99.90;;;;;;5068936;28;19920;-74
2022/10/30 14:23:05;;;;;;;;;;;19.50;99.90;;;;;;5069818;28;19947;-74